createdAt,value
2018-10-11T00:01:31.588Z,17.60
2018-10-11T00:03:59.631Z,17.37
2018-10-11T00:06:28.017Z,17.63
2018-10-11T00:08:56.261Z,18.70
2018-10-11T00:11:24.246Z,17.43
2018-10-11T00:13:52.581Z,18.63
2018-10-11T00:16:21.087Z,19.33
2018-10-11T00:18:49.139Z,21.03
2018-10-11T00:21:17.673Z,23.33
2018-10-11T00:23:45.931Z,24.13
2018-10-11T00:26:14.374Z,25.47
2018-10-11T00:28:42.639Z,23.70
2018-10-11T00:31:11.158Z,22.23
2018-10-11T00:33:39.397Z,20.73
2018-10-11T00:36:07.638Z,20.13
2018-10-11T00:38:36.144Z,18.60
2018-10-11T00:41:04.474Z,17.97
2018-10-11T00:43:32.691Z,18.40
2018-10-11T00:46:00.989Z,18.60
2018-10-11T00:48:29.437Z,17.90
2018-10-11T00:50:57.288Z,17.73
2018-10-11T00:53:25.492Z,16.60
2018-10-11T00:55:53.352Z,18.10
2018-10-11T00:58:21.137Z,17.07
2018-10-11T01:00:49.449Z,17.67
2018-10-11T01:03:17.438Z,17.77
2018-10-11T01:05:45.820Z,18.87
2018-10-11T01:08:14.083Z,16.73
2018-10-11T01:10:42.087Z,18.10
2018-10-11T01:13:10.623Z,17.80
2018-10-11T01:15:38.946Z,19.70
2018-10-11T01:18:07.311Z,17.80
2018-10-11T01:20:35.632Z,17.80
2018-10-11T01:23:03.962Z,17.77
2018-10-11T01:25:32.224Z,18.40
2018-10-11T01:28:00.915Z,18.67
2018-10-11T01:30:29.139Z,19.13
2018-10-11T01:32:57.521Z,18.50
2018-10-11T01:35:25.950Z,18.97
2018-10-11T01:37:54.474Z,24.00
2018-10-11T01:40:22.851Z,21.90
2018-10-11T01:43:06.140Z,18.90
2018-10-11T01:45:34.820Z,20.53
2018-10-11T01:48:02.999Z,24.73
2018-10-11T01:50:31.383Z,25.73
2018-10-11T01:52:59.590Z,26.83
2018-10-11T01:55:28.646Z,20.17
2018-10-11T01:57:58.070Z,26.67
2018-10-11T02:00:26.444Z,30.75
2018-10-11T02:02:56.626Z,29.97
2018-10-11T02:05:25.658Z,32.17
2018-10-11T02:07:54.326Z,32.27
2018-10-11T02:10:22.591Z,36.40
2018-10-11T02:12:51.118Z,37.77
2018-10-11T02:15:19.409Z,37.93
2018-10-11T02:17:47.663Z,38.77
2018-10-11T02:20:16.006Z,36.07
2018-10-11T02:22:44.419Z,30.43
2018-10-11T02:25:12.887Z,31.20
2018-10-11T02:27:41.490Z,24.23
2018-10-11T02:30:10.659Z,23.00
2018-10-11T02:32:38.433Z,26.37
2018-10-11T02:35:06.892Z,24.77
2018-10-11T02:37:35.116Z,23.80
2018-10-11T02:40:03.647Z,25.40
2018-10-11T02:42:31.886Z,25.77
2018-10-11T02:45:00.097Z,26.00
2018-10-11T02:47:28.414Z,24.73
2018-10-11T02:49:56.751Z,23.47
2018-10-11T02:52:24.969Z,22.80
2018-10-11T02:54:53.333Z,22.40
2018-10-11T02:57:32.755Z,25.57
2018-10-11T03:00:02.060Z,23.60
2018-10-11T03:02:30.387Z,24.53
2018-10-11T03:04:58.936Z,27.00
2018-10-11T03:07:28.019Z,27.47
2018-10-11T03:09:56.287Z,32.07
2018-10-11T03:12:24.545Z,30.67
2018-10-11T03:14:53.014Z,28.70
2018-10-11T03:17:21.267Z,25.83
2018-10-11T03:19:49.592Z,27.07
2018-10-11T03:22:17.754Z,28.53
2018-10-11T03:24:46.344Z,27.70
2018-10-11T03:27:14.625Z,27.80
2018-10-11T03:29:42.889Z,26.30
2018-10-11T03:32:11.376Z,26.23
2018-10-11T03:34:40.155Z,27.00
2018-10-11T03:37:08.199Z,26.00
2018-10-11T03:39:36.458Z,26.63
2018-10-11T03:42:04.762Z,24.33
2018-10-11T03:44:32.973Z,25.60
2018-10-11T03:47:01.325Z,25.17
2018-10-11T03:49:29.386Z,26.00
2018-10-11T03:51:57.396Z,27.50
2018-10-11T03:54:25.972Z,29.63
2018-10-11T03:56:54.850Z,32.53
2018-10-11T03:59:22.966Z,31.97
2018-10-11T04:01:51.137Z,29.83
2018-10-11T04:04:18.994Z,32.00
2018-10-11T04:06:47.010Z,32.60
2018-10-11T04:09:15.295Z,29.40
2018-10-11T04:11:43.631Z,30.60
2018-10-11T04:14:11.803Z,25.63
2018-10-11T04:16:39.761Z,25.87
2018-10-11T04:19:07.682Z,22.47
2018-10-11T04:21:36.044Z,23.20
2018-10-11T04:24:04.114Z,22.50
2018-10-11T04:26:32.274Z,22.70
2018-10-11T04:29:00.551Z,24.13
2018-10-11T04:31:28.754Z,23.33
2018-10-11T04:33:57.104Z,23.07
2018-10-11T04:36:25.315Z,21.60
2018-10-11T04:38:53.384Z,20.77
2018-10-11T04:41:21.675Z,21.03
2018-10-11T04:43:49.931Z,21.00
2018-10-11T04:46:18.159Z,21.30
2018-10-11T04:48:46.543Z,22.60
2018-10-11T04:51:14.768Z,20.47
2018-10-11T04:53:43.076Z,22.23
2018-10-11T04:56:11.375Z,20.90
2018-10-11T04:58:39.607Z,22.90
2018-10-11T05:01:07.390Z,23.20
2018-10-11T05:03:35.086Z,22.13
2018-10-11T05:06:03.122Z,21.13
2018-10-11T05:08:31.454Z,22.37
2018-10-11T05:10:59.782Z,24.43
2018-10-11T05:13:46.394Z,25.33
2018-10-11T05:16:15.227Z,23.47
2018-10-11T05:18:53.039Z,22.93
2018-10-11T05:21:21.256Z,23.33
2018-10-11T05:23:49.564Z,23.63
2018-10-11T05:26:18.093Z,23.10
2018-10-11T05:28:46.211Z,21.47
2018-10-11T05:31:14.898Z,23.37
2018-10-11T05:33:43.475Z,22.43
2018-10-11T05:36:11.743Z,24.20
2018-10-11T05:38:40.076Z,23.73
2018-10-11T05:41:07.918Z,28.10
2018-10-11T05:43:36.452Z,24.53
2018-10-11T05:46:08.660Z,25.33
2018-10-11T05:48:36.883Z,22.83
2018-10-11T05:51:05.077Z,24.37
2018-10-11T05:53:33.322Z,22.83
2018-10-11T05:56:01.593Z,24.73
2018-10-11T05:58:29.777Z,25.00
2018-10-11T06:00:57.635Z,24.17
2018-10-11T06:03:25.715Z,22.03
2018-10-11T06:05:53.541Z,20.37
2018-10-11T06:08:21.415Z,21.57
2018-10-11T06:10:49.713Z,21.27
2018-10-11T06:13:17.615Z,21.23
2018-10-11T06:15:45.481Z,20.63
2018-10-11T06:18:13.615Z,20.20
2018-10-11T06:20:41.930Z,20.77
2018-10-11T06:23:09.745Z,21.03
2018-10-11T06:25:37.591Z,19.77
2018-10-11T06:28:05.868Z,19.53
2018-10-11T06:30:34.749Z,20.10
2018-10-11T06:33:02.678Z,20.40
2018-10-11T06:35:31.028Z,19.70
2018-10-11T06:37:59.477Z,21.53
2018-10-11T06:40:27.451Z,21.50
2018-10-11T06:42:55.295Z,20.20
2018-10-11T06:45:23.189Z,20.73
2018-10-11T06:47:55.327Z,21.52
2018-10-11T06:50:23.255Z,20.20
2018-10-11T06:52:51.142Z,22.10
2018-10-11T06:55:18.962Z,20.77
2018-10-11T06:57:46.731Z,20.67
2018-10-11T07:00:14.512Z,23.67
2018-10-11T07:02:42.338Z,23.97
2018-10-11T07:05:10.103Z,24.57
2018-10-11T07:07:37.872Z,26.73
2018-10-11T07:10:05.776Z,25.33
2018-10-11T07:12:33.510Z,22.47
2018-10-11T07:15:01.235Z,21.63
2018-10-11T07:17:29.039Z,24.87
2018-10-11T07:19:56.711Z,24.40
2018-10-11T07:22:24.454Z,24.00
2018-10-11T07:24:52.259Z,24.63
2018-10-11T07:27:19.974Z,23.87
2018-10-11T07:29:47.789Z,23.87
2018-10-11T07:32:15.562Z,22.17
2018-10-11T07:34:43.348Z,21.20
2018-10-11T07:37:11.093Z,23.83
2018-10-11T07:39:38.875Z,23.30
2018-10-11T07:42:06.619Z,21.07
2018-10-11T07:44:34.353Z,20.67
2018-10-11T07:47:02.222Z,21.87
2018-10-11T07:49:29.979Z,21.93
2018-10-11T07:51:57.683Z,22.23
2018-10-11T07:54:32.050Z,22.53
2018-10-11T07:57:00.407Z,23.50
2018-10-11T07:59:28.158Z,23.43
2018-10-11T08:01:55.988Z,22.47
2018-10-11T08:04:23.772Z,22.60
2018-10-11T08:06:51.548Z,21.90
2018-10-11T08:09:19.350Z,21.97
2018-10-11T08:11:47.201Z,22.03
2018-10-11T08:14:15.564Z,21.23
2018-10-11T08:16:43.464Z,22.40
2018-10-11T08:19:11.311Z,21.53
2018-10-11T08:21:38.894Z,21.23
2018-10-11T08:24:07.275Z,21.93
2018-10-11T08:26:35.101Z,21.07
2018-10-11T08:29:02.838Z,22.00
2018-10-11T08:31:31.018Z,21.07
2018-10-11T08:33:59.450Z,21.20
2018-10-11T08:36:27.768Z,21.33
2018-10-11T08:38:55.526Z,20.50
2018-10-11T08:41:23.247Z,21.23
2018-10-11T08:43:51.103Z,21.93
2018-10-11T08:46:18.854Z,21.13
2018-10-11T08:48:46.549Z,21.03
2018-10-11T08:51:14.318Z,19.97
2018-10-11T08:53:42.195Z,20.70
2018-10-11T08:56:09.925Z,20.30
2018-10-11T08:58:37.870Z,20.33
2018-10-11T09:01:05.760Z,20.17
2018-10-11T09:03:33.815Z,19.30
2018-10-11T09:06:01.614Z,22.40
2018-10-11T09:08:29.448Z,20.63
2018-10-11T09:10:57.236Z,18.80
2018-10-11T09:13:24.943Z,20.97
2018-10-11T09:15:52.743Z,21.20
2018-10-11T09:18:20.486Z,20.37
2018-10-11T09:20:48.202Z,22.17
2018-10-11T09:23:16.038Z,19.93
2018-10-11T09:25:43.831Z,22.93
2018-10-11T09:28:11.530Z,21.23
2018-10-11T09:30:39.302Z,20.70
2018-10-11T09:33:07.045Z,21.60
2018-10-11T09:35:34.871Z,19.67
2018-10-11T09:38:02.659Z,21.47
2018-10-11T09:40:30.320Z,21.27
2018-10-11T09:42:58.112Z,20.73
2018-10-11T09:45:25.903Z,21.20
2018-10-11T09:47:53.602Z,21.97
2018-10-11T09:50:21.367Z,20.93
2018-10-11T09:52:49.150Z,22.10
2018-10-11T09:55:16.939Z,20.17
2018-10-11T09:57:44.706Z,22.53
2018-10-11T10:00:18.054Z,22.00
2018-10-11T10:02:46.908Z,22.33
2018-10-11T10:05:14.668Z,22.60
2018-10-11T10:07:42.382Z,23.97
2018-10-11T10:10:10.134Z,23.23
2018-10-11T10:12:37.847Z,21.60
2018-10-11T10:15:05.927Z,21.17
2018-10-11T10:17:35.319Z,23.10
2018-10-11T10:20:03.492Z,25.13
2018-10-11T10:22:32.035Z,24.50
2018-10-11T10:25:00.177Z,25.80
2018-10-11T10:27:28.545Z,25.60
2018-10-11T10:29:57.042Z,27.53
2018-10-11T10:32:25.417Z,26.20
2018-10-11T10:34:53.132Z,25.90
2018-10-11T10:37:20.868Z,25.80
2018-10-11T10:39:48.623Z,24.83
2018-10-11T10:42:16.297Z,25.63
2018-10-11T10:44:44.168Z,27.83
2018-10-11T10:47:11.883Z,25.07
2018-10-11T10:49:39.651Z,28.43
2018-10-11T10:52:07.461Z,25.43
2018-10-11T10:54:35.874Z,24.90
2018-10-11T10:57:04.572Z,26.80
2018-10-11T10:59:32.775Z,29.13
2018-10-11T11:02:01.041Z,30.50
2018-10-11T11:04:29.299Z,31.93
2018-10-11T11:06:57.667Z,34.37
2018-10-11T11:09:25.885Z,28.37
2018-10-11T11:11:54.223Z,34.33
2018-10-11T11:14:22.448Z,33.43
2018-10-11T11:16:50.994Z,31.53
2018-10-11T11:19:19.183Z,32.53
2018-10-11T11:21:47.693Z,30.90
2018-10-11T11:24:15.942Z,32.37
2018-10-11T11:26:44.400Z,31.30
2018-10-11T11:29:12.498Z,31.53
2018-10-11T11:31:40.762Z,35.10
2018-10-11T11:34:09.236Z,29.50
2018-10-11T11:36:37.560Z,29.90
2018-10-11T11:39:07.683Z,30.27
2018-10-11T11:41:35.839Z,28.27
2018-10-11T11:44:04.291Z,23.67
2018-10-11T11:46:32.499Z,32.83
2018-10-11T11:49:00.932Z,27.03
2018-10-11T11:51:29.317Z,23.67
2018-10-11T11:53:57.677Z,23.40
2018-10-11T11:56:26.052Z,22.13
2018-10-11T11:58:54.496Z,22.93
2018-10-11T12:01:22.319Z,22.97
2018-10-11T12:03:50.090Z,22.07
2018-10-11T12:06:17.834Z,24.60
2018-10-11T12:08:45.565Z,23.23
2018-10-11T12:11:13.324Z,23.53
2018-10-11T12:13:41.155Z,24.73
2018-10-11T12:16:08.876Z,22.30
2018-10-11T12:18:36.615Z,22.50
2018-10-11T12:21:04.536Z,22.83
2018-10-11T12:23:32.290Z,21.50
2018-10-11T12:26:00.040Z,23.20
2018-10-11T12:28:27.888Z,25.23
2018-10-11T12:30:55.679Z,23.27
2018-10-11T12:33:23.488Z,23.93
2018-10-11T12:35:51.243Z,22.00
2018-10-11T12:38:19.428Z,23.33
2018-10-11T12:40:47.781Z,22.63
2018-10-11T12:43:16.102Z,22.77
2018-10-11T12:45:43.843Z,23.33
2018-10-11T12:48:11.612Z,22.47
2018-10-11T12:50:39.496Z,22.80
2018-10-11T12:53:07.652Z,24.10
2018-10-11T12:55:35.421Z,24.30
2018-10-11T12:58:03.200Z,22.13
2018-10-11T13:00:30.895Z,21.30
2018-10-11T13:02:58.840Z,23.87
2018-10-11T13:05:26.492Z,24.20
2018-10-11T13:07:54.306Z,23.37
2018-10-11T13:10:22.052Z,24.67
2018-10-11T13:12:49.816Z,27.47
2018-10-11T13:15:17.558Z,26.67
2018-10-11T13:17:45.331Z,27.67
2018-10-11T13:20:13.123Z,28.47
2018-10-11T13:22:40.804Z,26.90
2018-10-11T13:25:08.611Z,23.43
2018-10-11T13:27:36.394Z,26.47
2018-10-11T13:30:04.281Z,27.53
2018-10-11T13:32:32.092Z,25.23
2018-10-11T13:34:59.935Z,27.03
2018-10-11T13:37:27.703Z,26.73
2018-10-11T13:39:57.691Z,26.70
2018-10-11T13:42:23.279Z,36.53
2018-10-11T13:44:51.023Z,27.33
2018-10-11T13:47:18.802Z,41.87
2018-10-11T13:49:46.676Z,26.23
2018-10-11T13:52:17.051Z,27.03
2018-10-11T13:54:42.225Z,27.03
2018-10-11T13:57:10.044Z,27.47
2018-10-11T13:59:37.822Z,27.60
2018-10-11T14:02:05.607Z,28.40
2018-10-11T14:04:33.507Z,29.40
2018-10-11T14:07:01.272Z,42.50
2018-10-11T14:09:29.099Z,31.43
2018-10-11T14:11:56.867Z,30.37
2018-10-11T14:14:24.542Z,28.67
2018-10-11T14:16:52.267Z,29.97
2018-10-11T14:19:20.052Z,28.70
2018-10-11T14:21:47.763Z,29.83
2018-10-11T14:24:15.618Z,31.23
2018-10-11T14:26:43.416Z,30.57
2018-10-11T14:29:11.131Z,37.60
2018-10-11T14:31:38.923Z,63.70
2018-10-11T14:34:06.943Z,48.73
2018-10-11T14:36:34.794Z,30.40
2018-10-11T14:39:02.602Z,42.03
2018-10-11T14:41:30.391Z,35.93
2018-10-11T14:43:58.148Z,34.60
2018-10-11T14:46:25.920Z,32.47
2018-10-11T14:48:53.736Z,30.93
2018-10-11T14:51:21.544Z,29.23
2018-10-11T14:53:52.780Z,31.07
2018-10-11T14:56:17.036Z,34.10
2018-10-11T14:58:44.859Z,29.67
2018-10-11T15:01:12.654Z,37.20
2018-10-11T15:03:40.416Z,36.27
2018-10-11T15:06:08.262Z,36.20
2018-10-11T15:08:36.107Z,34.70
2018-10-11T15:11:03.901Z,31.90
2018-10-11T15:13:31.626Z,32.60
2018-10-11T15:15:59.462Z,33.93
2018-10-11T15:18:27.213Z,37.60
2018-10-11T15:20:54.983Z,37.93
2018-10-11T15:23:22.747Z,35.20
2018-10-11T15:25:50.569Z,35.83
2018-10-11T15:28:18.323Z,30.80
2018-10-11T15:30:46.056Z,34.50
2018-10-11T15:33:13.812Z,37.97
2018-10-11T15:35:41.651Z,36.73
2018-10-11T15:38:09.360Z,37.73
2018-10-11T15:40:37.211Z,39.20
2018-10-11T15:43:05.052Z,36.27
2018-10-11T15:45:32.775Z,35.87
2018-10-11T15:48:00.568Z,36.47
2018-10-11T15:50:28.319Z,38.93
2018-10-11T15:52:56.138Z,37.83
2018-10-11T15:55:23.947Z,35.63
2018-10-11T15:57:51.764Z,36.93
2018-10-11T16:00:19.564Z,35.37
2018-10-11T16:02:47.366Z,33.77
2018-10-11T16:05:15.107Z,33.50
2018-10-11T16:07:42.935Z,37.43
2018-10-11T16:10:10.699Z,32.63
2018-10-11T16:12:38.470Z,35.07
2018-10-11T16:15:06.324Z,33.97
2018-10-11T16:17:34.192Z,32.27
2018-10-11T16:20:02.032Z,33.27
2018-10-11T16:22:29.764Z,34.73
2018-10-11T16:24:57.547Z,33.53
2018-10-11T16:27:25.537Z,37.43
2018-10-11T16:29:53.327Z,38.03
2018-10-11T16:32:21.181Z,44.95
2018-10-11T16:34:48.870Z,40.60
2018-10-11T16:37:16.606Z,40.73
2018-10-11T16:39:44.427Z,44.47
2018-10-11T16:42:12.150Z,48.47
2018-10-11T16:44:39.843Z,43.93
2018-10-11T16:47:07.647Z,39.67
2018-10-11T16:49:35.428Z,47.23
2018-10-11T16:52:03.212Z,43.20
2018-10-11T16:54:30.944Z,37.33
2018-10-11T16:56:58.666Z,38.87
2018-10-11T16:59:26.456Z,40.47
2018-10-11T17:01:54.904Z,40.30
2018-10-11T17:04:23.176Z,37.43
2018-10-11T17:06:51.621Z,36.47
2018-10-11T17:09:19.675Z,31.33
2018-10-11T17:11:48.052Z,32.07
2018-10-11T17:14:16.631Z,33.33
2018-10-11T17:16:44.643Z,36.57
2018-10-11T17:19:12.702Z,44.57
2018-10-11T17:21:41.192Z,46.87
2018-10-11T17:24:09.476Z,50.20
2018-10-11T17:26:37.707Z,96.87
2018-10-11T17:29:06.083Z,70.07
2018-10-11T17:31:34.550Z,66.53
2018-10-11T17:34:03.028Z,62.17
2018-10-11T17:36:31.496Z,64.60
2018-10-11T17:38:59.961Z,80.43
2018-10-11T17:41:28.390Z,58.10
2018-10-11T17:43:56.871Z,54.57
2018-10-11T17:46:25.376Z,66.63
2018-10-11T17:48:53.592Z,75.70
2018-10-11T17:51:21.813Z,72.57
2018-10-11T17:53:49.615Z,64.83
2018-10-11T17:56:17.367Z,59.50
2018-10-11T17:58:45.136Z,59.30
2018-10-11T18:01:12.979Z,51.37
2018-10-11T18:03:40.788Z,53.93
2018-10-11T18:06:08.549Z,49.17
2018-10-11T18:08:36.612Z,49.70
2018-10-11T18:11:11.483Z,51.67
2018-10-11T18:13:39.559Z,50.23
2018-10-11T18:16:07.300Z,60.20
2018-10-11T18:18:35.501Z,71.23
2018-10-11T18:21:03.823Z,63.57
2018-10-11T18:23:32.060Z,57.97
2018-10-11T18:26:00.308Z,54.57
2018-10-11T18:28:28.852Z,54.63
2018-10-11T18:30:57.046Z,63.57
2018-10-11T18:33:25.511Z,65.20
2018-10-11T18:35:53.754Z,57.80
2018-10-11T18:38:22.104Z,55.77
2018-10-11T18:40:50.340Z,53.37
2018-10-11T18:43:18.685Z,53.20
2018-10-11T18:45:46.448Z,55.30
2018-10-11T18:48:14.167Z,60.23
2018-10-11T18:50:41.966Z,77.80
2018-10-11T18:53:09.716Z,64.93
2018-10-11T18:55:37.455Z,61.97
2018-10-11T18:58:05.235Z,56.30
2018-10-11T19:00:32.935Z,56.57
2018-10-11T19:03:00.663Z,56.97
2018-10-11T19:05:28.843Z,57.80
2018-10-11T19:07:57.080Z,56.07
2018-10-11T19:10:25.406Z,117.87
2018-10-11T19:12:53.674Z,103.13
2018-10-11T19:15:22.022Z,58.97
2018-10-11T19:17:50.420Z,52.57
2018-10-11T19:20:18.556Z,52.43
2018-10-11T19:22:46.730Z,51.13
2018-10-11T19:25:15.028Z,53.07
2018-10-11T19:27:43.203Z,59.80
2018-10-11T19:30:11.567Z,53.30
2018-10-11T19:32:39.416Z,55.10
2018-10-11T19:35:07.607Z,50.43
2018-10-11T19:37:36.009Z,49.80
2018-10-11T19:40:04.272Z,49.83
2018-10-11T19:42:32.815Z,47.17
2018-10-11T19:45:01.230Z,47.00
2018-10-11T19:47:29.526Z,49.90
2018-10-11T19:49:57.851Z,49.03
2018-10-11T19:52:26.077Z,53.60
2018-10-11T19:54:54.588Z,55.00
2018-10-11T19:57:22.911Z,54.90
2018-10-11T19:59:51.327Z,50.47
2018-10-11T20:02:19.567Z,50.93
2018-10-11T20:04:47.527Z,61.80
2018-10-11T20:07:15.307Z,52.23
2018-10-11T20:09:43.579Z,51.23
2018-10-11T20:12:11.499Z,53.27
2018-10-11T20:14:39.908Z,51.03
2018-10-11T20:17:08.107Z,51.43
2018-10-11T20:19:36.368Z,50.83
2018-10-11T20:22:04.552Z,52.57
2018-10-11T20:24:32.308Z,56.00
2018-10-11T20:27:00.497Z,53.00
2018-10-11T20:29:28.782Z,43.93
2018-10-11T20:31:57.263Z,49.87
2018-10-11T20:34:25.575Z,52.97
2018-10-11T20:36:53.294Z,56.20
2018-10-11T20:39:21.100Z,54.47
2018-10-11T20:41:48.947Z,50.67
2018-10-11T20:44:16.655Z,44.87
2018-10-11T20:46:44.331Z,45.40
2018-10-11T20:49:12.427Z,46.60
2018-10-11T20:51:40.467Z,45.10
2018-10-11T20:54:08.867Z,44.70
2018-10-11T20:56:37.399Z,44.80
2018-10-11T20:59:06.148Z,43.50
2018-10-11T21:01:34.619Z,43.60
2018-10-11T21:04:03.089Z,42.80
2018-10-11T21:06:31.382Z,44.83
2018-10-11T21:08:59.683Z,43.43
2018-10-11T21:11:28.155Z,42.03
2018-10-11T21:13:56.715Z,40.27
2018-10-11T21:16:24.644Z,41.10
2018-10-11T21:18:53.177Z,39.73
2018-10-11T21:21:21.439Z,40.93
2018-10-11T21:23:49.904Z,40.80
2018-10-11T21:26:18.143Z,43.47
2018-10-11T21:28:46.661Z,43.37
2018-10-11T21:31:15.121Z,43.43
2018-10-11T21:33:43.485Z,44.43
2018-10-11T21:36:11.887Z,38.20
2018-10-11T21:38:40.196Z,40.40
2018-10-11T21:41:08.193Z,40.37
2018-10-11T21:43:36.732Z,40.03
2018-10-11T21:46:05.011Z,40.93
2018-10-11T21:48:33.578Z,40.10
2018-10-11T21:51:02.144Z,43.27
2018-10-11T21:53:30.541Z,42.70
2018-10-11T21:55:59.020Z,43.77
2018-10-11T21:58:27.444Z,41.60
2018-10-11T22:01:01.343Z,41.63
2018-10-11T22:03:29.768Z,41.07
2018-10-11T22:05:58.144Z,41.43
2018-10-11T22:08:26.417Z,39.00
2018-10-11T22:10:54.942Z,37.10
2018-10-11T22:13:23.354Z,38.33
2018-10-11T22:15:51.536Z,40.73
2018-10-11T22:18:19.877Z,39.63
2018-10-11T22:20:48.083Z,51.27
2018-10-11T22:23:15.907Z,47.97
2018-10-11T22:25:43.681Z,46.57
2018-10-11T22:28:11.536Z,48.30
2018-10-11T22:30:39.482Z,48.27
2018-10-11T22:33:07.411Z,41.27
2018-10-11T22:35:35.173Z,38.57
2018-10-11T22:38:03.082Z,47.47
2018-10-11T22:40:31.090Z,55.13
2018-10-11T22:42:58.887Z,49.00
2018-10-11T22:45:27.210Z,49.07
2018-10-11T22:47:55.986Z,54.23
2018-10-11T22:50:24.911Z,50.00
2018-10-11T22:52:52.743Z,47.33
2018-10-11T22:55:20.562Z,42.00
2018-10-11T22:57:48.428Z,47.17
2018-10-11T23:00:16.324Z,43.90
2018-10-11T23:02:44.059Z,44.70
2018-10-11T23:05:11.842Z,43.77
2018-10-11T23:07:39.663Z,47.97
2018-10-11T23:10:07.526Z,44.63
2018-10-11T23:12:35.259Z,43.87
2018-10-11T23:15:03.620Z,45.27
2018-10-11T23:17:31.937Z,46.80
2018-10-11T23:20:00.261Z,45.73
2018-10-11T23:22:28.539Z,47.03
2018-10-11T23:24:56.761Z,50.03
2018-10-11T23:27:24.528Z,47.27
2018-10-11T23:29:52.335Z,47.07
2018-10-11T23:32:20.098Z,49.23
2018-10-11T23:34:47.871Z,48.50
2018-10-11T23:37:15.706Z,48.70
2018-10-11T23:39:43.467Z,49.43
2018-10-11T23:42:11.244Z,44.80
2018-10-11T23:44:38.988Z,47.50
2018-10-11T23:47:06.908Z,47.60
2018-10-11T23:49:34.833Z,54.87
2018-10-11T23:52:02.783Z,54.30
2018-10-11T23:54:30.651Z,52.20
2018-10-11T23:56:58.502Z,53.43
2018-10-11T23:59:26.423Z,54.17
